Time;durP1;ratioP1;P1;durP2;ratioP2;P2;SDS_P1;SDS_P2;PMS_P1;PMS_P2;Temp;Humidity;BMP_temperature;BMP_pressure;BME280_temperature;BME280_humidity;BME280_pressure;Samples;Min_cycle;Max_cycle;Signal;HPM_P1;HPM_P2
2022/06/15 00:01:44;;;;;;;2.70;1.80;;;;;;;;;;6186868;23;20180;-92
2022/06/15 00:04:10;;;;;;;3.20;1.77;;;;;;;;;;6163211;23;20168;-92
2022/06/15 00:06:43;;;;;;;2.55;1.70;;;10.70;99.90;;;;;;6191242;23;20149;-93
2022/06/15 00:09:11;;;;;;;1.65;1.38;;;;;;;;;;6190561;23;20494;-91
2022/06/15 00:11:44;;;;;;;2.30;1.35;;;10.60;99.90;;;;;;6161276;23;20165;-89
2022/06/15 00:14:18;;;;;;;1.88;1.65;;;10.80;99.90;;;;;;6162263;23;20228;-92
2022/06/15 00:16:47;;;;;;;1.15;1.13;;;;;;;;;;6187296;23;20164;-92
2022/06/15 00:19:18;;;;;;;5.05;2.05;;;10.60;99.90;;;;;;6197463;23;20165;-91
2022/06/15 00:21:44;;;;;;;2.00;1.70;;;;;;;;;;6208363;23;20168;-90
2022/06/15 00:24:11;;;;;;;2.15;1.83;;;10.50;99.90;;;;;;6203434;23;20168;-89
2022/06/15 00:26:41;;;;;;;3.13;2.75;;;10.50;99.90;;;;;;6186591;23;20156;-89
2022/06/15 00:29:12;;;;;;;2.60;1.63;;;10.40;99.90;;;;;;6197450;23;20241;-89
2022/06/15 00:31:38;;;;;;;2.25;1.67;;;;;;;;;;6172599;23;20191;-90
2022/06/15 00:34:09;;;;;;;4.43;1.75;;;10.40;99.90;;;;;;6162288;23;20152;-89
2022/06/15 00:37:01;;;;;;;5.30;1.92;;;10.40;99.90;;;;;;6137880;23;20183;-90
2022/06/15 00:39:30;;;;;;;1.55;1.45;;;10.30;99.90;;;;;;6162462;23;20156;-91
2022/06/15 00:41:59;;;;;;;4.10;1.77;;;;;;;;;;6187914;23;20163;-89
2022/06/15 00:44:28;;;;;;;3.78;2.40;;;;;;;;;;6161386;23;20164;-90
2022/06/15 00:47:03;;;;;;;2.25;1.88;;;10.30;99.90;;;;;;6162066;23;20260;-91
2022/06/15 00:49:37;;;;;;;1.48;1.38;;;10.30;99.90;;;;;;6186835;23;20188;-89
2022/06/15 00:52:10;;;;;;;1.63;1.42;;;10.30;99.90;;;;;;6186733;23;20208;-90
2022/06/15 00:54:37;;;;;;;6.70;2.03;;;10.20;99.90;;;;;;6185595;23;20160;-90
2022/06/15 00:57:11;;;;;;;2.63;2.05;;;10.20;99.90;;;;;;6186015;23;20184;-93
2022/06/15 00:59:50;;;;;;;2.30;1.60;;;10.20;99.90;;;;;;6186113;23;20259;-92
2022/06/15 01:02:23;;;;;;;5.85;2.05;;;10.20;99.90;;;;;;6186309;23;20150;-91
2022/06/15 01:05:04;;;;;;;3.90;1.92;;;10.20;99.90;;;;;;6161645;23;20576;-92
2022/06/15 01:08:09;;;;;;;1.35;1.35;;;10.20;99.90;;;;;;6161473;23;20589;-92
2022/06/15 01:10:56;;;;;;;2.25;1.73;;;10.20;99.90;;;;;;6167547;23;20180;-90
2022/06/15 01:14:16;;;;;;;3.40;1.88;;;10.10;99.90;;;;;;6185755;23;20224;-90
2022/06/15 01:17:11;;;;;;;3.17;2.22;;;10.10;99.90;;;;;;6130035;23;20164;-90
2022/06/15 01:20:12;;;;;;;2.30;1.75;;;10.10;99.90;;;;;;6129822;23;20162;-89
2022/06/15 01:23:06;;;;;;;2.00;1.80;;;7.30;99.90;;;;;;6136143;23;20639;-90
2022/06/15 01:25:49;;;;;;;2.58;1.85;;;10.30;99.90;;;;;;6145235;23;20670;-90
2022/06/15 01:28:20;;;;;;;6.95;1.70;;;10.20;99.90;;;;;;6160784;23;20160;-90
2022/06/15 01:31:07;;;;;;;4.55;2.22;;;9.90;99.90;;;;;;6160668;23;20164;-90
2022/06/15 01:33:57;;;;;;;2.00;1.63;;;9.90;99.90;;;;;;6160649;23;20156;-90
2022/06/15 01:36:58;;;;;;;2.35;1.85;;;9.90;99.90;;;;;;6163822;23;20247;-90
2022/06/15 01:39:26;;;;;;;2.23;1.93;;;9.90;99.90;;;;;;6189607;23;20153;-90
2022/06/15 01:42:08;;;;;;;4.85;2.22;;;10.00;99.90;;;;;;6186924;23;20148;-91
2022/06/15 01:44:48;;;;;;;2.47;2.03;;;9.90;99.90;;;;;;6162324;23;20184;-91
2022/06/15 01:47:22;;;;;;;3.97;2.10;;;9.90;99.90;;;;;;6161674;23;20183;-91
2022/06/15 01:49:59;;;;;;;2.43;2.00;;;10.00;99.90;;;;;;6161050;23;20188;-90
2022/06/15 01:52:46;;;;;;;2.95;1.83;;;9.80;99.90;;;;;;6185843;23;20606;-91
2022/06/15 01:55:28;;;;;;;1.67;1.50;;;9.90;99.90;;;;;;6191531;23;20180;-91
2022/06/15 01:58:01;;;;;;;2.40;2.20;;;9.80;99.90;;;;;;6213290;23;20220;-89
2022/06/15 02:00:30;;;;;;;3.00;1.70;;;9.70;99.90;;;;;;6213377;23;20168;-89
2022/06/15 02:03:27;;;;;;;6.95;2.28;;;10.60;99.90;;;;;;6188528;23;20185;-90
2022/06/15 02:05:59;;;;;;;2.90;2.27;;;9.70;99.90;;;;;;6212839;23;20133;-89
2022/06/15 02:08:37;;;;;;;3.95;2.25;;;9.40;99.90;;;;;;6213141;23;20144;-89
2022/06/15 02:11:16;;;;;;;2.80;2.07;;;9.60;99.90;;;;;;6213945;23;20180;-89
2022/06/15 02:13:49;;;;;;;3.80;2.30;;;9.70;99.90;;;;;;6212718;23;20176;-90
2022/06/15 02:16:21;;;;;;;6.35;2.55;;;9.60;99.90;;;;;;6213129;23;20156;-91
2022/06/15 02:18:50;;;;;;;2.92;2.20;;;9.60;99.90;;;;;;6187924;23;20137;-90
2022/06/15 02:21:23;;;;;;;2.60;2.30;;;9.50;99.90;;;;;;6163526;23;20176;-91
2022/06/15 02:23:55;;;;;;;6.15;2.53;;;9.50;99.90;;;;;;6182062;23;20161;-92
2022/06/15 02:26:31;;;;;;;4.67;1.73;;;9.60;99.90;;;;;;6194566;23;20189;-92
2022/06/15 02:29:04;;;;;;;4.47;1.97;;;9.60;99.90;;;;;;6186171;23;20239;-92
2022/06/15 02:31:31;;;;;;;4.77;2.53;;;;;;;;;;6185799;23;20153;-92
2022/06/15 02:33:59;;;;;;;2.78;2.17;;;;;;;;;;6185403;23;20161;-93
2022/06/15 02:36:25;;;;;;;2.38;1.98;;;;;;;;;;6161066;23;20160;-92
2022/06/15 02:38:55;;;;;;;3.77;2.30;;;9.40;99.90;;;;;;6184995;23;20172;-93
2022/06/15 02:41:29;;;;;;;2.70;2.35;;;;;;;;;;6161447;23;20244;-93
2022/06/15 02:43:56;;;;;;;2.30;2.10;;;9.40;99.90;;;;;;6160163;23;20236;-91
2022/06/15 02:46:24;;;;;;;2.93;2.37;;;9.40;99.90;;;;;;6160777;23;20153;-92
2022/06/15 02:48:51;;;;;;;2.20;2.00;;;9.40;99.90;;;;;;6160032;23;20188;-92
2022/06/15 02:51:18;;;;;;;5.20;2.30;;;;;;;;;;6160426;23;20252;-91
2022/06/15 02:53:48;;;;;;;5.70;2.85;;;9.40;99.90;;;;;;6159769;23;20175;-92
2022/06/15 02:56:23;;;;;;;2.63;2.42;;;9.40;99.90;;;;;;6160580;23;20522;-93
2022/06/15 02:58:57;;;;;;;3.47;2.53;;;9.40;99.90;;;;;;6137146;23;20488;-92
2022/06/15 03:01:26;;;;;;;2.77;2.10;;;9.40;99.90;;;;;;6136593;23;20167;-92
2022/06/15 03:03:54;;;;;;;4.57;2.47;;;;;;;;;;6160372;23;20156;-92
2022/06/15 03:06:21;;;;;;;3.70;2.33;;;9.50;99.90;;;;;;6186175;23;20153;-90
2022/06/15 03:08:49;;;;;;;2.93;2.43;;;9.40;99.90;;;;;;6183942;23;20199;-91
2022/06/15 03:11:19;;;;;;;3.23;2.30;;;9.50;99.90;;;;;;6160505;23;20244;-92
2022/06/15 03:13:45;;;;;;;3.65;2.55;;;9.60;99.90;;;;;;6184565;23;20225;-92
2022/06/15 03:16:11;;;;;;;2.93;2.40;;;;;;;;;;6185586;23;20214;-92
2022/06/15 03:18:39;;;;;;;3.30;2.07;;;;;;;;;;6201638;23;20171;-91
2022/06/15 03:21:09;;;;;;;3.07;2.50;;;;;;;;;;6211677;23;20152;-91
2022/06/15 03:23:40;;;;;;;1.80;1.70;;;;;;;;;;6202122;23;20588;-92
2022/06/15 03:26:06;;;;;;;5.40;2.70;;;;;;;;;;6160598;23;20156;-91
2022/06/15 03:28:35;;;;;;;3.37;2.93;;;9.80;99.90;;;;;;6160026;23;20584;-92
2022/06/15 03:31:01;;;;;;;4.50;2.57;;;;;;;;;;6159054;23;20539;-90
2022/06/15 03:33:27;;;;;;;2.60;2.40;;;9.90;99.90;;;;;;6188320;23;20164;-92
2022/06/15 03:35:53;;;;;;;6.90;2.30;;;;;;;;;;6183371;23;20153;-91
2022/06/15 03:38:19;;;;;;;3.67;2.80;;;;;;;;;;6184552;23;20165;-93
2022/06/15 03:40:47;;;;;;;3.07;2.17;;;10.10;99.90;;;;;;6185425;23;20157;-92
2022/06/15 03:43:18;;;;;;;4.45;2.33;;;10.20;99.90;;;;;;6159860;23;20170;-93
2022/06/15 03:45:46;;;;;;;3.40;2.33;;;;;;;;;;6184755;23;20152;-92
2022/06/15 03:48:15;;;;;;;3.78;2.45;;;10.40;99.90;;;;;;6185049;23;20498;-93
2022/06/15 03:50:43;;;;;;;3.43;2.37;;;;;;;;;;6185883;23;20160;-92
2022/06/15 03:53:11;;;;;;;5.45;2.95;;;10.60;99.90;;;;;;6161052;23;20211;-92
2022/06/15 03:55:41;;;;;;;3.42;2.38;;;10.60;99.90;;;;;;6161980;23;20167;-91
2022/06/15 03:58:07;;;;;;;3.78;3.00;;;;;;;;;;6186385;23;20659;-94
2022/06/15 04:00:33;;;;;;;5.15;2.78;;;;;;;;;;6191026;23;20195;-92
2022/06/15 04:05:59;;;;;;;;;;;;;;;;;;;;;
2022/06/15 04:08:39;;;;;;;2.88;2.58;;;10.80;99.90;;;;;;6187710;23;20216;-91
2022/06/15 04:14:12;;;;;;;;;;;;;;;;;;;;;
2022/06/15 04:16:38;;;;;;;2.15;1.80;;;;;;;;;;6186658;23;20620;-89
2022/06/15 04:19:08;;;;;;;11.18;3.10;;;;;;;;;;6160269;23;20196;-89
2022/06/15 04:21:38;;;;;;;3.10;2.30;;;10.70;99.90;;;;;;6160012;23;20541;-90
2022/06/15 04:24:11;;;;;;;3.63;2.60;;;;;;;;;;6159197;23;20206;-91
2022/06/15 04:26:38;;;;;;;2.22;2.00;;;11.00;99.90;;;;;;6160004;23;20161;-89
2022/06/15 04:29:03;;;;;;;4.18;2.13;;;11.80;99.90;;;;;;6159535;23;20220;-91
2022/06/15 04:31:29;;;;;;;6.45;2.53;;;;;;;;;;6185525;23;20212;-90
2022/06/15 04:33:58;;;;;;;3.30;2.55;;;;;;;;;;6185339;23;20584;-92
2022/06/15 04:36:27;;;;;;;2.45;1.90;;;11.30;99.90;;;;;;6161268;23;20168;-90
2022/06/15 04:39:00;;;;;;;6.80;2.00;;;11.30;99.90;;;;;;6160312;23;20169;-92
2022/06/15 04:41:38;;;;;;;2.80;2.38;;;11.40;99.90;;;;;;6184549;23;20156;-91
2022/06/15 04:44:08;;;;;;;3.35;2.28;;;11.40;99.90;;;;;;6183204;23;20234;-91
2022/06/15 04:46:43;;;;;;;5.07;2.55;;;11.40;99.90;;;;;;6159896;23;20344;-90
2022/06/15 04:49:10;;;;;;;4.32;3.08;;;;;;;;;;6187930;23;20589;-94
2022/06/15 04:51:52;;;;;;;2.67;2.42;;;11.40;99.90;;;;;;6184889;23;20203;-90
2022/06/15 04:54:20;;;;;;;3.05;2.20;;;11.70;99.90;;;;;;6183866;23;20152;-92
2022/06/15 04:56:49;;;;;;;2.42;2.15;;;;;;;;;;6160030;23;20542;-91
2022/06/15 04:59:17;;;;;;;3.05;2.38;;;;;;;;;;6183576;23;20223;-89
2022/06/15 05:01:45;;;;;;;4.45;2.28;;;;;;;;;;6189912;23;20167;-91
2022/06/15 05:04:11;;;;;;;2.47;2.10;;;;;;;;;;6159209;23;20157;-92
2022/06/15 05:06:42;;;;;;;6.30;2.65;;;12.20;99.90;;;;;;6160843;23;20588;-92
2022/06/15 05:12:30;;;;;;;1.90;1.75;;;;;;;;;;6168021;23;20403;-91
2022/06/15 05:14:58;;;;;;;4.20;2.58;;;12.30;99.90;;;;;;6161104;23;20281;-89
2022/06/15 05:17:24;;;;;;;5.68;2.58;;;12.40;99.90;;;;;;6186408;23;20152;-87
2022/06/15 05:19:50;;;;;;;3.05;2.15;;;12.80;99.90;;;;;;6186769;23;20605;-88
2022/06/15 05:22:17;;;;;;;5.95;2.25;;;;;;;;;;6186480;23;20231;-90
2022/06/15 05:24:42;;;;;;;4.72;2.03;;;12.50;99.90;;;;;;6160301;23;20157;-88
2022/06/15 05:27:09;;;;;;;5.53;3.47;;;12.70;99.90;;;;;;6160316;23;20588;-88
2022/06/15 05:29:36;;;;;;;2.25;2.05;;;12.70;99.90;;;;;;6160209;23;20188;-88
2022/06/15 05:32:04;;;;;;;2.90;2.00;;;12.80;99.90;;;;;;6160325;23;20303;-88
2022/06/15 05:34:30;;;;;;;4.53;2.80;;;12.90;99.90;;;;;;6159873;23;20223;-88
2022/06/15 05:36:55;;;;;;;2.42;1.88;;;13.10;99.90;;;;;;6135381;23;20164;-88
2022/06/15 05:39:21;;;;;;;2.88;2.67;;;13.10;99.90;;;;;;6135358;23;20171;-90
2022/06/15 05:41:49;;;;;;;5.63;3.13;;;13.20;99.90;;;;;;6186049;23;20531;-87
2022/06/15 05:44:29;;;;;;;3.30;1.98;;;13.30;99.90;;;;;;6160197;23;20164;-88
2022/06/15 05:46:56;;;;;;;7.50;2.33;;;13.30;99.90;;;;;;6160029;23;20160;-88
2022/06/15 05:49:22;;;;;;;4.35;2.78;;;13.40;99.90;;;;;;6185813;23;20181;-89
2022/06/15 05:51:48;;;;;;;3.08;2.38;;;14.80;99.90;;;;;;6134667;23;20156;-87
2022/06/15 05:54:13;;;;;;;5.00;2.65;;;13.30;99.90;;;;;;6159314;23;20157;-88
2022/06/15 05:56:39;;;;;;;2.28;1.75;;;13.40;99.90;;;;;;6185253;23;20160;-88
2022/06/15 05:59:04;;;;;;;2.78;2.15;;;13.40;99.90;;;;;;6134718;23;20180;-88
2022/06/15 06:01:32;;;;;;;4.43;2.28;;;16.00;99.90;;;;;;6134971;23;20164;-88
2022/06/15 06:03:59;;;;;;;2.60;2.03;;;13.60;99.90;;;;;;6185805;23;20156;-90
2022/06/15 06:06:25;;;;;;;5.15;2.47;;;13.50;99.90;;;;;;6163052;23;20160;-87
2022/06/15 06:08:51;;;;;;;3.20;2.10;;;13.60;99.90;;;;;;6189786;23;20188;-89
2022/06/15 06:11:18;;;;;;;3.83;2.30;;;13.40;99.90;;;;;;6185835;23;20256;-88
2022/06/15 06:13:43;;;;;;;2.55;1.98;;;13.60;99.90;;;;;;6159807;23;20200;-88
2022/06/15 06:16:24;;;;;;;3.35;2.20;;;14.10;99.90;;;;;;6164595;23;20224;-87
2022/06/15 06:18:51;;;;;;;2.53;1.90;;;13.80;99.90;;;;;;6144676;23;20623;-88
2022/06/15 06:21:17;;;;;;;2.40;1.73;;;14.00;99.90;;;;;;6192549;23;20149;-88
2022/06/15 06:23:43;;;;;;;2.70;2.33;;;14.00;99.90;;;;;;6164711;23;20424;-87
2022/06/15 06:26:22;;;;;;;2.85;2.08;;;14.10;99.90;;;;;;6143021;23;20184;-89
2022/06/15 06:28:48;;;;;;;3.95;1.95;;;14.00;99.90;;;;;;6176837;23;20172;-88
2022/06/15 06:31:19;;;;;;;2.65;2.22;;;14.30;99.90;;;;;;6209299;23;20244;-89
2022/06/15 06:33:46;;;;;;;5.68;2.17;;;14.20;99.90;;;;;;6155492;23;20168;-86
2022/06/15 06:36:23;;;;;;;5.40;2.05;;;14.30;99.90;;;;;;6159675;23;20247;-86
2022/06/15 06:38:48;;;;;;;2.15;1.75;;;14.50;99.90;;;;;;6211718;23;20175;-87
2022/06/15 06:41:23;;;;;;;1.35;1.25;;;14.60;99.90;;;;;;6139426;23;20164;-87
2022/06/15 06:43:48;;;;;;;5.85;2.30;;;14.80;99.90;;;;;;6185724;23;20174;-86
2022/06/15 06:46:14;;;;;;;3.65;1.85;;;14.80;99.90;;;;;;6160057;23;20165;-89
2022/06/15 06:48:40;;;;;;;2.67;1.70;;;14.90;99.90;;;;;;6160432;23;20191;-88
2022/06/15 06:51:05;;;;;;;3.78;1.80;;;14.90;99.90;;;;;;6134993;23;20184;-89
2022/06/15 06:53:31;;;;;;;1.85;1.52;;;14.90;99.90;;;;;;6134604;23;20156;-90
2022/06/15 06:56:01;;;;;;;2.85;1.92;;;14.90;99.90;;;;;;6159178;23;20156;-88
2022/06/15 06:58:27;;;;;;;2.17;1.38;;;15.00;99.90;;;;;;6158854;23;20160;-89
2022/06/15 07:00:52;;;;;;;1.77;1.33;;;15.10;99.90;;;;;;6110521;23;20166;-91
2022/06/15 07:03:18;;;;;;;4.13;1.98;;;15.20;99.90;;;;;;6158311;23;20168;-88
2022/06/15 07:05:44;;;;;;;3.25;1.80;;;15.40;99.90;;;;;;6158668;23;20491;-88
2022/06/15 07:08:12;;;;;;;2.88;1.05;;;15.40;99.90;;;;;;6134582;23;20622;-87
2022/06/15 07:10:39;;;;;;;1.33;1.10;;;15.40;99.90;;;;;;6159366;23;20204;-88
2022/06/15 07:13:04;;;;;;;1.80;1.70;;;15.30;99.90;;;;;;6185830;23;20192;-87
2022/06/15 07:15:30;;;;;;;3.20;1.45;;;15.40;99.90;;;;;;6186047;23;20211;-88
2022/06/15 07:18:01;;;;;;;2.13;1.52;;;15.40;99.90;;;;;;6135192;23;20161;-88
2022/06/15 07:20:28;;;;;;;5.57;1.42;;;15.50;99.90;;;;;;6186159;23;20160;-89
2022/06/15 07:22:54;;;;;;;2.20;1.40;;;15.50;99.90;;;;;;6161980;23;20156;-89
2022/06/15 07:25:20;;;;;;;2.88;1.88;;;15.50;99.90;;;;;;6191329;23;20204;-90
2022/06/15 07:27:46;;;;;;;3.47;1.70;;;15.50;99.90;;;;;;6194883;23;20149;-89
2022/06/15 07:30:16;;;;;;;1.65;1.52;;;15.40;99.90;;;;;;6166122;23;20185;-90
2022/06/15 07:32:43;;;;;;;1.75;1.65;;;15.40;99.90;;;;;;6163850;23;20160;-90
2022/06/15 07:35:31;;;;;;;1.80;1.60;;;15.50;99.90;;;;;;6164794;23;20160;-93
2022/06/15 07:37:57;;;;;;;4.50;1.85;;;15.40;99.90;;;;;;6191253;23;20152;-90
2022/06/15 07:40:23;;;;;;;3.05;1.80;;;15.40;99.90;;;;;;6179670;23;20156;-91
2022/06/15 07:42:51;;;;;;;1.85;1.60;;;15.30;99.90;;;;;;6177063;23;20192;-88
2022/06/15 07:45:19;;;;;;;2.20;1.65;;;15.40;99.90;;;;;;6179077;23;20168;-88
2022/06/15 07:50:29;;;;;;;1.50;1.40;;;15.80;99.90;;;;;;6175747;23;20196;-88
2022/06/15 07:52:56;;;;;;;2.45;1.35;;;15.80;99.90;;;;;;6199696;23;20148;-89
2022/06/15 07:55:25;;;;;;;1.65;1.55;;;15.80;99.90;;;;;;6174574;23;20588;-88
2022/06/15 07:57:52;;;;;;;4.20;1.50;;;15.80;99.90;;;;;;6197026;23;20159;-88
2022/06/15 08:00:19;;;;;;;1.80;1.55;;;15.90;99.90;;;;;;6198735;23;20596;-88
2022/06/15 08:02:45;;;;;;;2.80;1.38;;;16.00;99.90;;;;;;6167672;23;20187;-89
2022/06/15 08:05:11;;;;;;;3.83;1.67;;;15.80;99.90;;;;;;6142586;23;20167;-87
2022/06/15 08:07:37;;;;;;;3.20;1.63;;;15.80;99.90;;;;;;6171274;23;20156;-87
2022/06/15 08:10:04;;;;;;;2.65;1.45;;;16.00;99.90;;;;;;6167124;23;20192;-86
2022/06/15 08:12:30;;;;;;;4.07;1.50;;;16.00;99.90;;;;;;6161636;23;20188;-90
2022/06/15 08:14:58;;;;;;;2.22;1.58;;;16.10;99.90;;;;;;6190152;23;20152;-87
2022/06/15 08:17:46;;;;;;;1.60;1.50;;;16.10;99.90;;;;;;6163421;23;20160;-89
2022/06/15 08:20:21;;;;;;;2.05;1.73;;;16.20;99.90;;;;;;6163054;23;20161;-89
2022/06/15 08:22:51;;;;;;;1.98;1.45;;;16.20;99.90;;;;;;6163278;23;20186;-89
2022/06/15 08:25:55;;;;;;;5.70;1.63;;;16.20;99.90;;;;;;6188779;23;20149;-87
2022/06/15 08:28:24;;;;;;;2.47;1.98;;;16.10;99.90;;;;;;6165827;23;20164;-88
2022/06/15 08:30:50;;;;;;;2.95;2.00;;;16.20;99.90;;;;;;6192638;23;20601;-89
2022/06/15 08:33:16;;;;;;;1.70;1.60;;;16.10;99.90;;;;;;6196342;23;20156;-89
2022/06/15 08:35:42;;;;;;;2.05;1.85;;;16.30;99.90;;;;;;6145943;23;20157;-89
2022/06/15 08:38:11;;;;;;;1.98;1.67;;;16.40;99.90;;;;;;6173444;23;20240;-89
2022/06/15 08:40:48;;;;;;;2.88;1.83;;;16.50;99.90;;;;;;6165726;23;20183;-88
2022/06/15 08:43:41;;;;;;;3.78;1.85;;;16.70;99.90;;;;;;6195465;23;20227;-89
2022/06/15 08:46:41;;;;;;;9.32;1.60;;;16.80;99.90;;;;;;6171203;23;20240;-86
2022/06/15 08:49:07;;;;;;;3.80;1.83;;;16.90;99.90;;;;;;6135759;23;20193;-89
2022/06/15 08:51:45;;;;;;;2.75;1.92;;;16.80;99.90;;;;;;6163277;23;20239;-86
2022/06/15 08:54:33;;;;;;;1.40;1.30;;;16.80;99.90;;;;;;6189885;23;20324;-87
2022/06/15 08:57:13;;;;;;;1.25;1.17;;;17.00;99.90;;;;;;6188091;23;20176;-90
2022/06/15 08:59:50;;;;;;;2.85;1.63;;;16.90;99.90;;;;;;6161407;23;20258;-87
2022/06/15 09:02:27;;;;;;;4.00;2.33;;;17.00;99.90;;;;;;6187182;23;20207;-88
2022/06/15 09:05:16;;;;;;;2.38;1.52;;;17.00;99.90;;;;;;6160512;23;20188;-87
2022/06/15 09:08:12;;;;;;;1.27;0.93;;;17.00;99.90;;;;;;6186892;23;20143;-86
2022/06/15 09:10:47;;;;;;;2.72;1.48;;;16.90;99.90;;;;;;6160871;23;20188;-88
2022/06/15 09:13:27;;;;;;;1.70;1.60;;;17.00;99.90;;;;;;6160405;23;20681;-86
2022/06/15 09:15:59;;;;;;;2.65;1.27;;;17.00;99.90;;;;;;6160502;23;20622;-88
2022/06/15 09:18:50;;;;;;;1.95;1.75;;;17.50;99.90;;;;;;6160680;23;20156;-88
2022/06/15 09:21:25;;;;;;;4.38;1.90;;;16.80;99.90;;;;;;6160529;23;20156;-88
2022/06/15 09:24:16;;;;;;;5.18;1.73;;;16.80;99.90;;;;;;6160699;23;20230;-87
2022/06/15 09:27:09;;;;;;;1.88;1.20;;;16.80;99.90;;;;;;6186375;23;20192;-86
2022/06/15 09:29:41;;;;;;;2.08;1.20;;;16.90;99.90;;;;;;6151586;23;20185;-87
2022/06/15 09:32:18;;;;;;;1.92;1.17;;;17.00;99.90;;;;;;6186745;23;20140;-89
2022/06/15 09:35:11;;;;;;;2.08;1.15;;;17.10;99.90;;;;;;6186822;23;20144;-89
2022/06/15 09:37:40;;;;;;;1.20;1.10;;;17.20;99.90;;;;;;6158822;23;20157;-87
2022/06/15 09:40:07;;;;;;;1.95;1.25;;;17.30;99.90;;;;;;6136162;23;20661;-87
2022/06/15 09:42:51;;;;;;;1.67;1.25;;;17.30;99.90;;;;;;6160164;23;20168;-87
2022/06/15 09:45:36;;;;;;;0.98;0.95;;;17.20;99.90;;;;;;6159736;23;20642;-87
2022/06/15 09:48:26;;;;;;;1.10;1.00;;;17.30;99.90;;;;;;6159987;23;20163;-86
2022/06/15 09:51:04;;;;;;;1.13;0.90;;;17.50;99.90;;;;;;6186521;23;20156;-87
2022/06/15 09:53:40;;;;;;;0.85;0.73;;;17.50;99.90;;;;;;6160104;23;20167;-86
2022/06/15 09:56:10;;;;;;;2.80;1.30;;;17.30;99.90;;;;;;6160059;23;20156;-86
2022/06/15 09:58:51;;;;;;;1.85;0.93;;;17.30;99.90;;;;;;6186426;23;20153;-88
2022/06/15 10:01:18;;;;;;;1.60;1.08;;;17.40;99.90;;;;;;6159993;23;20180;-87
2022/06/15 10:03:47;;;;;;;1.45;1.20;;;17.30;99.90;;;;;;6185942;23;20180;-87
2022/06/15 10:06:19;;;;;;;1.33;0.77;;;17.20;99.90;;;;;;6186883;23;20149;-88
2022/06/15 10:08:46;;;;;;;1.30;1.10;;;17.10;99.90;;;;;;6159464;23;20185;-86
2022/06/15 10:11:21;;;;;;;1.20;1.10;;;17.10;99.90;;;;;;6159752;23;20156;-86
2022/06/15 10:13:47;;;;;;;2.08;1.10;;;17.10;99.90;;;;;;6186103;23;20187;-86
2022/06/15 10:16:33;;;;;;;4.28;1.52;;;17.00;99.90;;;;;;6159529;23;20205;-87
2022/06/15 10:19:07;;;;;;;4.65;1.65;;;17.00;99.90;;;;;;6135115;23;20469;-88
2022/06/15 10:21:35;;;;;;;2.35;1.20;;;16.90;99.90;;;;;;6185874;23;20141;-87
2022/06/15 10:24:06;;;;;;;2.33;1.40;;;16.80;99.90;;;;;;6158992;23;20157;-91
2022/06/15 10:27:08;;;;;;;1.48;0.98;;;16.70;99.90;;;;;;6185620;23;20153;-89
2022/06/15 10:29:34;;;;;;;4.68;1.58;;;16.80;99.90;;;;;;6158793;23;20195;-90
2022/06/15 10:32:05;;;;;;;1.33;1.23;;;16.80;99.90;;;;;;6137278;23;20235;-90
2022/06/15 10:34:46;;;;;;;1.58;1.20;;;16.90;99.90;;;;;;6191845;23;20141;-88
2022/06/15 10:37:25;;;;;;;2.05;1.33;;;17.20;99.90;;;;;;6162164;23;20156;-90
2022/06/15 10:39:55;;;;;;;1.52;0.95;;;17.50;99.90;;;;;;6160386;23;20164;-90
2022/06/15 10:42:36;;;;;;;;;;;;;;;;;;;;;
2022/06/15 10:45:21;;;;;;;0.73;0.70;;;18.10;99.90;;;;;;6186175;23;20220;-87
2022/06/15 10:48:01;;;;;;;3.47;1.05;;;18.30;99.90;;;;;;6159844;23;20228;-88
2022/06/15 10:50:43;;;;;;;0.90;0.90;;;18.00;99.90;;;;;;6159246;23;20218;-90
2022/06/15 10:53:31;;;;;;;2.08;1.20;;;17.90;99.90;;;;;;6158760;23;20239;-88
2022/06/15 11:04:35;;;;;;;0.77;0.77;;;18.20;99.90;;;;;;6185107;23;20594;-88
2022/06/15 11:07:08;;;;;;;1.25;1.15;;;18.10;99.90;;;;;;6158735;23;20156;-87
2022/06/15 11:10:02;;;;;;;3.63;1.13;;;18.10;99.90;;;;;;6174626;23;20176;-89
2022/06/15 11:12:46;;;;;;;1.20;1.10;;;18.00;99.90;;;;;;6159352;23;20211;-88
2022/06/15 11:15:17;;;;;;;1.15;1.05;;;17.90;99.90;;;;;;6185873;23;20141;-91
2022/06/15 11:18:01;;;;;;;1.88;1.20;;;18.00;99.90;;;;;;6185965;23;20152;-87
2022/06/15 11:20:57;;;;;;;1.00;0.95;;;18.10;99.90;;;;;;6185637;23;20215;-87
2022/06/15 11:23:41;;;;;;;2.60;1.13;;;18.10;99.90;;;;;;6185869;23;20172;-87
2022/06/15 11:29:24;;;;;;;3.50;1.50;;;18.90;99.90;;;;;;6185389;23;20243;-87
2022/06/15 11:31:51;;;;;;;1.30;0.90;;;19.20;99.90;;;;;;6185377;23;20796;-88
2022/06/15 11:34:21;;;;;;;2.25;1.10;;;19.40;99.30;;;;;;6134281;23;20219;-88
2022/06/15 11:36:54;;;;;;;1.88;1.17;;;19.50;99.90;;;;;;6158908;23;20235;-86
2022/06/15 11:39:25;;;;;;;1.83;0.88;;;19.50;99.90;;;;;;6162762;23;20167;-86
2022/06/15 11:41:54;;;;;;;2.17;0.90;;;19.00;99.50;;;;;;6184782;23;20518;-86
2022/06/15 11:44:20;;;;;;;1.50;1.23;;;18.70;99.90;;;;;;6184789;23;20283;-86
2022/06/15 11:46:55;;;;;;;2.22;1.40;;;18.60;99.90;;;;;;6158888;23;20208;-88
2022/06/15 11:49:35;;;;;;;1.20;0.80;;;18.70;99.90;;;;;;6184664;23;20178;-85
2022/06/15 11:52:23;;;;;;;1.60;1.08;;;18.70;99.90;;;;;;6158786;23;20235;-85
2022/06/15 11:55:15;;;;;;;1.42;1.00;;;18.90;99.90;;;;;;6184394;23;20137;-88
2022/06/15 11:58:21;;;;;;;0.75;0.75;;;18.70;99.90;;;;;;6158049;23;20161;-88
2022/06/15 12:01:25;;;;;;;1.95;1.08;;;19.00;99.90;;;;;;6158686;23;20165;-86
2022/06/15 12:04:18;;;;;;;3.10;2.00;;;19.10;99.90;;;;;;6158887;23;20183;-88
2022/06/15 12:06:58;;;;;;;1.85;1.10;;;19.20;99.90;;;;;;6159154;23;20644;-88
2022/06/15 12:09:38;;;;;;;1.10;0.85;;;19.20;99.90;;;;;;6159805;23;20246;-87
2022/06/15 12:12:39;;;;;;;2.47;0.90;;;19.20;99.90;;;;;;6186931;23;20168;-87
2022/06/15 12:15:10;;;;;;;3.03;1.10;;;19.20;99.00;;;;;;6159558;23;20708;-88
2022/06/15 12:18:27;;;;;;;2.25;1.25;;;19.30;98.50;;;;;;6160633;23;20157;-88
2022/06/15 12:21:15;;;;;;;2.00;1.38;;;19.40;99.60;;;;;;6088126;23;20162;-85
2022/06/15 12:23:43;;;;;;;1.45;1.15;;;19.30;98.60;;;;;;6155728;23;20544;-85
2022/06/15 12:26:39;;;;;;;0.93;0.85;;;19.30;99.60;;;;;;6183687;23;20149;-85
2022/06/15 12:29:04;;;;;;;0.88;0.85;;;19.40;95.90;;;;;;6160595;23;20192;-87
2022/06/15 12:32:08;;;;;;;3.03;1.45;;;19.40;95.30;;;;;;6187420;23;20698;-85
2022/06/15 12:34:58;;;;;;;0.93;0.68;;;19.30;94.30;;;;;;6177439;23;20654;-88
2022/06/15 12:37:29;;;;;;;1.15;0.90;;;19.00;95.70;;;;;;6188569;23;20205;-86
2022/06/15 12:40:07;;;;;;;2.70;1.20;;;18.80;96.10;;;;;;6161303;23;20160;-88
2022/06/15 12:42:33;;;;;;;0.98;0.88;;;18.80;98.80;;;;;;6161318;23;20526;-87
2022/06/15 12:45:38;;;;;;;1.35;1.10;;;18.70;98.80;;;;;;6161660;23;20157;-88
2022/06/15 12:48:18;;;;;;;1.05;0.75;;;18.80;99.50;;;;;;6091958;23;20173;-87
2022/06/15 12:50:53;;;;;;;1.33;0.95;;;18.90;98.40;;;;;;6186723;23;20620;-86
2022/06/15 12:53:34;;;;;;;1.20;1.10;;;19.00;98.40;;;;;;6187747;23;20144;-87
2022/06/15 12:56:14;;;;;;;1.30;1.20;;;19.10;98.50;;;;;;6187338;23;20248;-86
2022/06/15 12:58:52;;;;;;;0.95;0.90;;;19.20;99.90;;;;;;6186986;23;20172;-88
2022/06/15 13:01:45;;;;;;;1.45;1.08;;;19.30;98.80;;;;;;6186947;23;20141;-87
2022/06/15 13:04:38;;;;;;;0.70;0.70;;;19.60;98.10;;;;;;6097767;23;20161;-87
2022/06/15 13:07:35;;;;;;;0.93;0.70;;;19.50;96.00;;;;;;6160860;23;20156;-87
2022/06/15 13:10:06;;;;;;;1.05;0.80;;;19.50;95.60;;;;;;6151299;23;20211;-88
2022/06/15 13:12:48;;;;;;;2.85;0.90;;;19.40;96.00;;;;;;6186639;23;20580;-88
2022/06/15 13:15:26;;;;;;;1.35;0.80;;;19.40;95.90;;;;;;6197462;23;20172;-88
2022/06/15 13:18:08;;;;;;;1.13;0.80;;;19.50;95.50;;;;;;6166222;23;20157;-89
2022/06/15 13:20:57;;;;;;;1.70;0.77;;;19.40;95.70;;;;;;6163459;23;20157;-88
2022/06/15 13:23:23;;;;;;;1.00;0.90;;;19.30;94.60;;;;;;6164534;23;20239;-88
2022/06/15 13:25:52;;;;;;;1.90;0.90;;;19.40;95.90;;;;;;6180933;23;20156;-86
2022/06/15 13:28:22;;;;;;;1.90;1.13;;;19.50;96.50;;;;;;6213813;23;20157;-87
2022/06/15 13:30:47;;;;;;;1.00;0.90;;;19.50;96.60;;;;;;6187961;23;20201;-87
2022/06/15 13:33:13;;;;;;;2.05;0.80;;;19.20;96.70;;;;;;6214138;23;20171;-84
2022/06/15 13:35:43;;;;;;;1.60;1.15;;;19.00;97.60;;;;;;6188345;23;20171;-90
2022/06/15 13:38:22;;;;;;;0.77;0.77;;;19.00;98.60;;;;;;6188784;23;20228;-87
2022/06/15 13:40:53;;;;;;;1.27;1.00;;;19.00;98.50;;;;;;6160047;23;20168;-86
2022/06/15 13:43:42;;;;;;;2.58;0.77;;;19.10;99.00;;;;;;6160127;23;20160;-86
2022/06/15 13:46:28;;;;;;;2.45;1.33;;;19.20;99.30;;;;;;6128828;23;20157;-89
2022/06/15 13:48:58;;;;;;;1.60;1.40;;;19.20;98.20;;;;;;6159084;23;20516;-88
2022/06/15 13:51:38;;;;;;;1.20;1.10;;;19.20;98.40;;;;;;6159721;23;20200;-89
2022/06/15 13:54:31;;;;;;;0.82;0.73;;;19.30;98.40;;;;;;6186360;23;20163;-87
2022/06/15 13:57:18;;;;;;;1.60;0.85;;;19.40;99.30;;;;;;6186166;23;20195;-88
2022/06/15 13:59:59;;;;;;;2.15;1.27;;;19.40;97.90;;;;;;6159203;23;20164;-87
2022/06/15 14:03:09;;;;;;;2.15;1.17;;;19.40;98.00;;;;;;6185544;23;20195;-87
2022/06/15 14:05:52;;;;;;;1.02;1.00;;;19.40;98.60;;;;;;6065619;23;20852;-87